フィレンツェ・ペレトラ空港の過去48時間の天気

フィレンツェ・ペレトラ空港 (Firenze / Peretola)

現在時刻: 7/2 15:42 CEST (7/2 13:42 UTC) 以下の時間は現地時間です。

過去48時間のMETAR気象情報
時間 風向 風速(m/s) 視程 気温(℃) 湿度(%) 気圧(hPa) 天気現象
2 15:20 西 4 10km以上 33 41 1010
2 14:50 3 10km以上 33 44 1010
2 14:20 西 4 10km以上 33 44 1010
2 13:50 西 3 10km以上 31 49 1011
2 13:20 3 10km以上 32 46 1011
2 12:50 不定 2 10km以上 31 46 1011
2 12:20 西南西 3 10km以上 31 46 1011
2 11:50 不定 1 10km以上 30 49 1011
2 11:20 不定 2 10km以上 29 52 1011
2 10:50 不定 1 10km以上 28 55 1011
2 10:20 不定 1 10km以上 27 54 1011
2 09:50 2 10km以上 27 54 1012
2 09:20 不定 2 10km以上 27 54 1012
2 08:50 南南東 2 10km以上 25 65 1012
2 08:20 不定 1 10km以上 24 65 1012
2 07:50 不定 1 10km以上 23 69 1012
2 07:20 不定 1 10km以上 23 69 1011
2 06:50 西北西 1 10km以上 21 78 1011
2 06:20 不定 1 10km以上 19 83 1011
2 05:50 不定 1 10km以上 20 83 1011
2 05:20 南東 2 10km以上 20 83 1011
2 04:50 東南東 1 10km以上 20 78 1011
2 04:20 不定 1 10km以上 21 78 1011
2 03:50 不定 1 10km以上 20 78 1011
2 03:20 2 10km以上 22 73 1011
2 02:50 2 10km以上 22 73 1011
2 01:50 2 10km以上 21 73 1012
2 01:20 東北東 2 10km以上 22 69 1012
2 00:50 2 10km以上 23 65 1012
2 00:20 東北東 2 10km以上 23 65 1012
1 23:50 2 10km以上 24 61 1011
1 23:20 不定 1 10km以上 26 54 1012
1 22:50 南南西 3 10km以上 26 58 1011
1 22:20 南西 2 10km以上 26 54 1011
1 21:50 西南西 2 10km以上 27 48 1011
1 21:20 西北西 3 10km以上 26 51 1011
1 20:50 西北西 2 10km以上 27 45 1011
1 20:20 西 3 10km以上 29 43 1010
1 19:50 西 5 10km以上 30 35 1010
1 19:20 西 5 10km以上 30 40 1010
1 18:50 西 4 10km以上 31 36 1010
1 18:20 西南西 4 10km以上 32 36 1011
1 17:50 西南西 4 10km以上 32 36 1011
1 17:20 西南西 3 10km以上 32 38 1011
1 16:50 南西 4 10km以上 32 36 1011
1 16:20 西 3 10km以上 32 31 1011
1 15:50 西南西 4 10km以上 32 28 1011
1 15:20 西南西 4 10km以上 32 26 1011
1 14:50 西 3 10km以上 32 26 1012
1 14:20 南西 3 10km以上 31 27 1012
1 13:50 西南西 4 10km以上 31 27 1012
1 13:20 3 10km以上 30 31 1013
1 12:50 西南西 3 10km以上 30 35 1013
1 12:20 南南西 3 10km以上 30 35 1013
1 11:50 西北西 2 10km以上 29 43 1013
1 11:20 不定 2 10km以上 28 42 1014
1 10:50 西 3 10km以上 27 48 1014
1 10:20 不定 2 10km以上 26 58 1014
1 09:50 不定 1 10km以上 25 61 1014
1 09:20 不定 1 10km以上 25 61 1014
1 08:50 不定 1 10km以上 24 65 1014
1 08:20 不定 1 10km以上 23 69 1014
1 07:50 不定 1 10km以上 22 69 1014
1 07:20 不定 1 10km以上 21 73 1014
1 06:50 北東 1 10km以上 20 78 1014
1 06:20 東北東 2 10km以上 18 83 1014
1 05:50 東北東 2 10km以上 18 83 1014
1 05:20 東北東 2 10km以上 18 83 1013
1 04:50 2 10km以上 18 83 1013
1 04:20 3 10km以上 19 78 1013
1 03:50 3 10km以上 19 78 1013
1 03:20 2 10km以上 19 78 1013
1 02:50 南東 2 10km以上 20 78 1013
1 02:20 不定 1 10km以上 20 73 1013
1 01:50 東北東 2 10km以上 21 69 1013
1 01:20 不定 1 10km以上 20 73 1013
1 00:50 東北東 2 10km以上 21 69 1013
1 00:20 2 10km以上 21 69 1013
30 23:50 3 10km以上 22 65 1013
30 23:20 東北東 2 10km以上 22 60 1013
30 22:50 不定 1 10km以上 23 61 1013
30 22:20 不定 1 10km以上 25 50 1013
30 21:50 西南西 3 10km以上 27 42 1012
30 21:20 西 3 10km以上 27 45 1012
30 20:50 西南西 3 10km以上 28 42 1012
30 20:20 南西 4 10km以上 29 37 1012
30 19:50 南西 4 10km以上 29 37 1012
30 19:20 南西 5 10km以上 30 35 1012
30 18:50 南西 5 10km以上 30 35 1012
30 18:20 西南西 4 10km以上 31 40 1012
30 17:50 西南西 4 10km以上 31 36 1012
30 17:20 南西 6 10km以上 32 28 1012
30 16:50 西南西 5 10km以上 31 40 1012
30 16:20 西 5 10km以上 31 40 1012
30 15:50 西南西 5 10km以上 32 36 1012
LIRQ 021320Z 27007KT 190V310 9999 FEW030 33/18 Q1010
LIRQ 021250Z VRB06KT 9999 FEW030 33/19 Q1010
LIRQ 021220Z 27007KT 220V320 9999 FEW030 33/19 Q1010
LIRQ 021150Z 26006KT 210V290 9999 FEW030 31/19 Q1011
LIRQ 021120Z VRB05KT 9999 FEW030 32/19 Q1011
LIRQ 021050Z VRB04KT 9999 FEW030 31/18 Q1011
LIRQ 021020Z 25005KT 210V340 9999 FEW030 31/18 Q1011
LIRQ 020950Z VRB02KT 9999 FEW030 30/18 Q1011
LIRQ 020920Z VRB04KT 9999 FEW030 29/18 Q1011
LIRQ 020850Z VRB02KT CAVOK 28/18 Q1011
LIRQ 020820Z VRB02KT CAVOK 27/17 Q1011
LIRQ 020750Z 19003KT 100V270 9999 FEW030 27/17 Q1012
LIRQ 020720Z VRB03KT CAVOK 27/17 Q1012
LIRQ 020650Z 16003KT 090V230 CAVOK 25/18 Q1012
LIRQ 020620Z VRB02KT CAVOK 24/17 Q1012
LIRQ 020550Z VRB01KT CAVOK 23/17 Q1012
LIRQ 020520Z VRB01KT CAVOK 23/17 Q1011
LIRQ 020450Z 29002KT CAVOK 21/17 Q1011
LIRQ 020420Z VRB02KT 9999 FEW060 19/16 Q1011
LIRQ 020350Z VRB01KT 9999 FEW060 20/17 Q1011
LIRQ 020320Z 14003KT 060V180 CAVOK 20/17 Q1011
LIRQ 020250Z 11002KT CAVOK 20/16 Q1011
LIRQ 020220Z VRB01KT CAVOK 21/17 Q1011
LIRQ 020150Z VRB02KT CAVOK 20/16 Q1011
LIRQ 020120Z 10004KT CAVOK 22/17 Q1011
LIRQ 020050Z 10004KT CAVOK 22/17 Q1011
LIRQ 012350Z 08003KT CAVOK 21/16 Q1012
LIRQ 012320Z 07003KT CAVOK 22/16 Q1012
LIRQ 012250Z 10003KT CAVOK 23/16 Q1012
LIRQ 012220Z 07004KT CAVOK 23/16 Q1012
LIRQ 012150Z 08003KT CAVOK 24/16 Q1011
LIRQ 012120Z VRB01KT CAVOK 26/16 Q1012
LIRQ 012050Z 20005KT CAVOK 26/17 Q1011
LIRQ 012020Z 22003KT CAVOK 26/16 Q1011
LIRQ 011950Z 25004KT CAVOK 27/15 Q1011
LIRQ 011920Z 30005KT CAVOK 26/15 Q1011
LIRQ 011850Z 29004KT 9999 FEW070 27/14 Q1011
LIRQ 011820Z 28006KT 240V300 CAVOK 29/15 Q1010
LIRQ 011750Z 28009KT CAVOK 30/13 Q1010
LIRQ 011720Z 28009KT 250V310 CAVOK 30/15 Q1010
LIRQ 011650Z 26008KT 230V300 CAVOK 31/14 Q1010
LIRQ 011620Z 24008KT 210V280 CAVOK 32/15 Q1011
LIRQ 011550Z 25007KT 210V300 CAVOK 32/15 Q1011
LIRQ 011520Z 24006KT 180V270 CAVOK 32/16 Q1011
LIRQ 011450Z 22007KT 190V280 CAVOK 32/15 Q1011
LIRQ 011420Z 26006KT 220V310 CAVOK 32/13 Q1011
LIRQ 011350Z 24007KT 200V320 CAVOK 32/11 Q1011
LIRQ 011320Z 24007KT 210V280 CAVOK 32/10 Q1011
LIRQ 011250Z 26006KT 190V310 CAVOK 32/10 Q1012
LIRQ 011220Z 22005KT 170V310 CAVOK 31/10 Q1012
LIRQ 011150Z 24007KT 200V300 CAVOK 31/10 Q1012
LIRQ 011120Z VRB06KT CAVOK 30/11 Q1013
LIRQ 011050Z 24006KT 200V300 CAVOK 30/13 Q1013
LIRQ 011020Z 21006KT 160V240 CAVOK 30/13 Q1013
LIRQ 010950Z 29004KT 200V010 CAVOK 29/15 Q1013
LIRQ 010920Z VRB03KT CAVOK 28/14 Q1014
LIRQ 010850Z 26005KT 200V320 CAVOK 27/15 Q1014
LIRQ 010820Z VRB03KT CAVOK 26/17 Q1014
LIRQ 010750Z VRB02KT CAVOK 25/17 Q1014
LIRQ 010720Z VRB01KT CAVOK 25/17 Q1014
LIRQ 010650Z VRB02KT CAVOK 24/17 Q1014
LIRQ 010620Z VRB01KT CAVOK 23/17 Q1014
LIRQ 010550Z VRB01KT CAVOK 22/16 Q1014
LIRQ 010520Z VRB01KT CAVOK 21/16 Q1014
LIRQ 010450Z 05002KT CAVOK 20/16 Q1014
LIRQ 010420Z 06003KT CAVOK 18/15 Q1014
LIRQ 010350Z 07004KT CAVOK 18/15 Q1014
LIRQ 010320Z 07003KT CAVOK 18/15 Q1013
LIRQ 010250Z 08004KT CAVOK 18/15 Q1013
LIRQ 010220Z 08005KT CAVOK 19/15 Q1013
LIRQ 010150Z 08005KT CAVOK 19/15 Q1013
LIRQ 010120Z 08003KT CAVOK 19/15 Q1013
LIRQ 010050Z 13004KT CAVOK 20/16 Q1013
LIRQ 010020Z VRB02KT CAVOK 20/15 Q1013
LIRQ 302350Z 07004KT CAVOK 21/15 Q1013
LIRQ 302320Z VRB02KT CAVOK 20/15 Q1013
LIRQ 302250Z 07004KT CAVOK 21/15 Q1013
LIRQ 302220Z 09003KT CAVOK 21/15 Q1013
LIRQ 302150Z 08005KT CAVOK 22/15 Q1013
LIRQ 302120Z 07004KT CAVOK 22/14 Q1013
LIRQ 302050Z VRB01KT CAVOK 23/15 Q1013
LIRQ 302020Z VRB02KT CAVOK 25/14 Q1013
LIRQ 301950Z 24006KT CAVOK 27/13 Q1012
LIRQ 301920Z 26005KT 230V290 CAVOK 27/14 Q1012
LIRQ 301850Z 25006KT 210V280 CAVOK 28/14 Q1012
LIRQ 301820Z 22007KT 200V260 CAVOK 29/13 Q1012
LIRQ 301750Z 22008KT CAVOK 29/13 Q1012
LIRQ 301720Z 22010KT 200V260 CAVOK 30/13 Q1012
LIRQ 301650Z 22010KT CAVOK 30/13 Q1012
LIRQ 301620Z 25008KT 220V290 CAVOK 31/16 Q1012
LIRQ 301550Z 24008KT 190V280 CAVOK 31/14 Q1012
LIRQ 301520Z 23011KT 200V270 CAVOK 32/11 Q1012
LIRQ 301450Z 25009KT 210V290 9999 FEW050 31/16 Q1012
LIRQ 301420Z 28010KT 240V320 9999 FEW050 31/16 Q1012
LIRQ 301350Z 24010KT 200V280 9999 SCT050 32/15 Q1012